sensor_id;sensor_type;location;lat;lon;timestamp;P1;durP1;ratioP1;P2;durP2;ratioP2
8480;SDS011;4277;51.354;6.740;2023-04-19T00:01:38;12.77;;;11.47;;
8480;SDS011;4277;51.354;6.740;2023-04-19T00:04:05;12.37;;;11.10;;
8480;SDS011;4277;51.354;6.740;2023-04-19T00:06:32;13.30;;;12.00;;
8480;SDS011;4277;51.354;6.740;2023-04-19T00:08:59;13.50;;;11.00;;
8480;SDS011;4277;51.354;6.740;2023-04-19T00:11:25;13.47;;;11.00;;
8480;SDS011;4277;51.354;6.740;2023-04-19T00:13:51;11.93;;;10.73;;
8480;SDS011;4277;51.354;6.740;2023-04-19T00:16:17;11.37;;;10.13;;
8480;SDS011;4277;51.354;6.740;2023-04-19T00:18:42;11.67;;;10.47;;
8480;SDS011;4277;51.354;6.740;2023-04-19T00:21:08;12.27;;;10.90;;
8480;SDS011;4277;51.354;6.740;2023-04-19T00:23:35;12.93;;;11.60;;
8480;SDS011;4277;51.354;6.740;2023-04-19T00:26:02;13.13;;;11.83;;
8480;SDS011;4277;51.354;6.740;2023-04-19T00:28:28;13.90;;;12.40;;
8480;SDS011;4277;51.354;6.740;2023-04-19T00:30:54;13.73;;;12.27;;
8480;SDS011;4277;51.354;6.740;2023-04-19T00:33:20;15.97;;;12.00;;
8480;SDS011;4277;51.354;6.740;2023-04-19T00:35:46;13.77;;;12.27;;
8480;SDS011;4277;51.354;6.740;2023-04-19T00:38:12;15.63;;;12.10;;
8480;SDS011;4277;51.354;6.740;2023-04-19T00:40:38;13.03;;;11.37;;
8480;SDS011;4277;51.354;6.740;2023-04-19T00:43:04;16.33;;;12.37;;
8480;SDS011;4277;51.354;6.740;2023-04-19T00:45:31;14.83;;;12.43;;
8480;SDS011;4277;51.354;6.740;2023-04-19T00:47:57;14.10;;;12.00;;
8480;SDS011;4277;51.354;6.740;2023-04-19T00:50:23;14.00;;;12.60;;
8480;SDS011;4277;51.354;6.740;2023-04-19T00:52:49;15.40;;;11.60;;
8480;SDS011;4277;51.354;6.740;2023-04-19T00:55:17;13.53;;;12.00;;
8480;SDS011;4277;51.354;6.740;2023-04-19T00:57:43;13.30;;;11.90;;
8480;SDS011;4277;51.354;6.740;2023-04-19T01:00:09;14.03;;;12.60;;
8480;SDS011;4277;51.354;6.740;2023-04-19T01:02:35;13.37;;;11.97;;
8480;SDS011;4277;51.354;6.740;2023-04-19T01:05:01;14.77;;;12.43;;
8480;SDS011;4277;51.354;6.740;2023-04-19T01:07:27;15.73;;;13.47;;
8480;SDS011;4277;51.354;6.740;2023-04-19T01:09:53;14.97;;;12.53;;
8480;SDS011;4277;51.354;6.740;2023-04-19T01:12:19;14.30;;;12.80;;
8480;SDS011;4277;51.354;6.740;2023-04-19T01:14:45;14.67;;;13.07;;
8480;SDS011;4277;51.354;6.740;2023-04-19T01:17:11;15.83;;;13.23;;
8480;SDS011;4277;51.354;6.740;2023-04-19T01:19:37;15.13;;;13.53;;
8480;SDS011;4277;51.354;6.740;2023-04-19T01:22:03;14.80;;;12.37;;
8480;SDS011;4277;51.354;6.740;2023-04-19T01:24:30;13.93;;;12.47;;
8480;SDS011;4277;51.354;6.740;2023-04-19T01:26:56;15.93;;;13.30;;
8480;SDS011;4277;51.354;6.740;2023-04-19T01:29:22;14.53;;;12.03;;
8480;SDS011;4277;51.354;6.740;2023-04-19T01:31:48;14.07;;;12.60;;
8480;SDS011;4277;51.354;6.740;2023-04-19T01:34:20;13.80;;;12.30;;
8480;SDS011;4277;51.354;6.740;2023-04-19T01:36:49;16.20;;;13.27;;
8480;SDS011;4277;51.354;6.740;2023-04-19T01:39:15;17.90;;;13.57;;
8480;SDS011;4277;51.354;6.740;2023-04-19T01:41:41;15.23;;;13.63;;
8480;SDS011;4277;51.354;6.740;2023-04-19T01:44:07;14.23;;;12.83;;
8480;SDS011;4277;51.354;6.740;2023-04-19T01:46:33;15.60;;;13.43;;
8480;SDS011;4277;51.354;6.740;2023-04-19T01:49:00;16.13;;;12.90;;
8480;SDS011;4277;51.354;6.740;2023-04-19T01:51:26;15.93;;;13.77;;
8480;SDS011;4277;51.354;6.740;2023-04-19T01:53:52;14.83;;;13.13;;
8480;SDS011;4277;51.354;6.740;2023-04-19T01:56:18;15.33;;;13.27;;
8480;SDS011;4277;51.354;6.740;2023-04-19T01:58:45;14.10;;;12.70;;
8480;SDS011;4277;51.354;6.740;2023-04-19T02:01:11;15.70;;;12.73;;
8480;SDS011;4277;51.354;6.740;2023-04-19T02:03:38;15.27;;;12.27;;
8480;SDS011;4277;51.354;6.740;2023-04-19T02:06:03;13.77;;;12.00;;
8480;SDS011;4277;51.354;6.740;2023-04-19T02:08:30;14.37;;;12.87;;
8480;SDS011;4277;51.354;6.740;2023-04-19T02:10:56;12.40;;;11.20;;
8480;SDS011;4277;51.354;6.740;2023-04-19T02:13:21;14.33;;;12.83;;
8480;SDS011;4277;51.354;6.740;2023-04-19T02:15:47;15.33;;;13.33;;
8480;SDS011;4277;51.354;6.740;2023-04-19T02:18:14;13.90;;;12.23;;
8480;SDS011;4277;51.354;6.740;2023-04-19T02:20:41;13.33;;;12.03;;
8480;SDS011;4277;51.354;6.740;2023-04-19T02:23:07;13.97;;;12.57;;
8480;SDS011;4277;51.354;6.740;2023-04-19T02:25:33;15.03;;;13.43;;
8480;SDS011;4277;51.354;6.740;2023-04-19T02:27:59;14.00;;;12.60;;
8480;SDS011;4277;51.354;6.740;2023-04-19T02:30:25;16.60;;;13.13;;
8480;SDS011;4277;51.354;6.740;2023-04-19T02:32:51;14.53;;;11.50;;
8480;SDS011;4277;51.354;6.740;2023-04-19T02:35:18;14.93;;;12.07;;
8480;SDS011;4277;51.354;6.740;2023-04-19T02:37:44;15.63;;;12.23;;
8480;SDS011;4277;51.354;6.740;2023-04-19T02:40:10;15.87;;;11.83;;
8480;SDS011;4277;51.354;6.740;2023-04-19T02:42:36;14.10;;;12.57;;
8480;SDS011;4277;51.354;6.740;2023-04-19T02:45:02;14.57;;;13.00;;
8480;SDS011;4277;51.354;6.740;2023-04-19T02:47:28;13.90;;;12.43;;
8480;SDS011;4277;51.354;6.740;2023-04-19T02:49:54;14.80;;;13.23;;
8480;SDS011;4277;51.354;6.740;2023-04-19T02:52:20;15.33;;;13.30;;
8480;SDS011;4277;51.354;6.740;2023-04-19T02:54:46;14.00;;;12.60;;
8480;SDS011;4277;51.354;6.740;2023-04-19T02:57:12;16.27;;;13.13;;
8480;SDS011;4277;51.354;6.740;2023-04-19T02:59:38;13.90;;;12.50;;
8480;SDS011;4277;51.354;6.740;2023-04-19T03:02:04;14.43;;;12.90;;
8480;SDS011;4277;51.354;6.740;2023-04-19T03:04:30;19.77;;;13.87;;
8480;SDS011;4277;51.354;6.740;2023-04-19T03:06:56;14.30;;;12.80;;
8480;SDS011;4277;51.354;6.740;2023-04-19T03:09:22;13.93;;;11.83;;
8480;SDS011;4277;51.354;6.740;2023-04-19T03:11:48;12.93;;;11.53;;
8480;SDS011;4277;51.354;6.740;2023-04-19T03:14:14;13.80;;;12.30;;
8480;SDS011;4277;51.354;6.740;2023-04-19T03:16:40;14.97;;;13.37;;
8480;SDS011;4277;51.354;6.740;2023-04-19T03:19:06;14.10;;;12.03;;
8480;SDS011;4277;51.354;6.740;2023-04-19T03:21:32;16.47;;;13.30;;
8480;SDS011;4277;51.354;6.740;2023-04-19T03:23:58;15.90;;;12.53;;
8480;SDS011;4277;51.354;6.740;2023-04-19T03:26:24;16.90;;;13.23;;
8480;SDS011;4277;51.354;6.740;2023-04-19T03:28:50;16.30;;;13.60;;
8480;SDS011;4277;51.354;6.740;2023-04-19T03:31:15;16.63;;;13.40;;
8480;SDS011;4277;51.354;6.740;2023-04-19T03:33:41;16.90;;;13.13;;
8480;SDS011;4277;51.354;6.740;2023-04-19T03:36:08;14.27;;;12.37;;
8480;SDS011;4277;51.354;6.740;2023-04-19T03:38:34;14.63;;;11.13;;
8480;SDS011;4277;51.354;6.740;2023-04-19T03:41:00;14.73;;;13.07;;
8480;SDS011;4277;51.354;6.740;2023-04-19T03:43:25;14.33;;;10.93;;
8480;SDS011;4277;51.354;6.740;2023-04-19T03:45:51;12.00;;;10.40;;
8480;SDS011;4277;51.354;6.740;2023-04-19T03:48:17;12.97;;;11.57;;
8480;SDS011;4277;51.354;6.740;2023-04-19T03:50:43;10.13;;;8.83;;
8480;SDS011;4277;51.354;6.740;2023-04-19T03:53:09;11.50;;;9.03;;
8480;SDS011;4277;51.354;6.740;2023-04-19T03:55:35;10.57;;;8.90;;
8480;SDS011;4277;51.354;6.740;2023-04-19T03:58:01;9.90;;;8.90;;
8480;SDS011;4277;51.354;6.740;2023-04-19T04:00:27;10.87;;;8.43;;
8480;SDS011;4277;51.354;6.740;2023-04-19T04:02:53;9.70;;;8.40;;
8480;SDS011;4277;51.354;6.740;2023-04-19T04:05:19;8.73;;;7.83;;
8480;SDS011;4277;51.354;6.740;2023-04-19T04:07:45;9.43;;;7.63;;
8480;SDS011;4277;51.354;6.740;2023-04-19T04:10:11;8.40;;;7.53;;
8480;SDS011;4277;51.354;6.740;2023-04-19T04:12:37;8.80;;;7.90;;
8480;SDS011;4277;51.354;6.740;2023-04-19T04:15:03;9.43;;;7.50;;
8480;SDS011;4277;51.354;6.740;2023-04-19T04:17:29;7.63;;;6.80;;
8480;SDS011;4277;51.354;6.740;2023-04-19T04:19:55;11.23;;;7.60;;
8480;SDS011;4277;51.354;6.740;2023-04-19T04:22:21;8.07;;;7.27;;
8480;SDS011;4277;51.354;6.740;2023-04-19T04:24:47;8.87;;;7.20;;
8480;SDS011;4277;51.354;6.740;2023-04-19T04:27:13;7.50;;;6.33;;
8480;SDS011;4277;51.354;6.740;2023-04-19T04:29:44;8.67;;;6.77;;
8480;SDS011;4277;51.354;6.740;2023-04-19T04:32:10;7.80;;;6.70;;
8480;SDS011;4277;51.354;6.740;2023-04-19T04:34:38;7.47;;;6.57;;
8480;SDS011;4277;51.354;6.740;2023-04-19T04:37:04;7.67;;;6.60;;
8480;SDS011;4277;51.354;6.740;2023-04-19T04:39:32;9.83;;;6.83;;
8480;SDS011;4277;51.354;6.740;2023-04-19T04:42:03;9.17;;;6.90;;
8480;SDS011;4277;51.354;6.740;2023-04-19T04:44:31;7.90;;;6.70;;
8480;SDS011;4277;51.354;6.740;2023-04-19T04:46:58;10.63;;;6.60;;
8480;SDS011;4277;51.354;6.740;2023-04-19T04:49:24;6.80;;;6.10;;
8480;SDS011;4277;51.354;6.740;2023-04-19T04:51:50;6.90;;;6.20;;
8480;SDS011;4277;51.354;6.740;2023-04-19T04:54:16;6.90;;;6.07;;
8480;SDS011;4277;51.354;6.740;2023-04-19T04:56:42;7.03;;;5.17;;
8480;SDS011;4277;51.354;6.740;2023-04-19T04:59:07;6.07;;;5.47;;
8480;SDS011;4277;51.354;6.740;2023-04-19T05:01:33;5.60;;;5.10;;
8480;SDS011;4277;51.354;6.740;2023-04-19T05:03:59;5.00;;;4.50;;
8480;SDS011;4277;51.354;6.740;2023-04-19T05:06:25;5.93;;;5.37;;
8480;SDS011;4277;51.354;6.740;2023-04-19T05:08:51;5.73;;;5.13;;
8480;SDS011;4277;51.354;6.740;2023-04-19T05:11:17;5.50;;;5.00;;
8480;SDS011;4277;51.354;6.740;2023-04-19T05:13:43;5.97;;;4.97;;
8480;SDS011;4277;51.354;6.740;2023-04-19T05:16:09;6.97;;;5.00;;
8480;SDS011;4277;51.354;6.740;2023-04-19T05:18:35;6.03;;;5.10;;
8480;SDS011;4277;51.354;6.740;2023-04-19T05:21:01;6.03;;;4.90;;
8480;SDS011;4277;51.354;6.740;2023-04-19T05:23:27;7.47;;;5.07;;
8480;SDS011;4277;51.354;6.740;2023-04-19T05:25:53;8.60;;;5.40;;
8480;SDS011;4277;51.354;6.740;2023-04-19T05:28:19;7.60;;;4.77;;
8480;SDS011;4277;51.354;6.740;2023-04-19T05:30:45;5.83;;;5.07;;
8480;SDS011;4277;51.354;6.740;2023-04-19T05:33:11;6.63;;;4.67;;
8480;SDS011;4277;51.354;6.740;2023-04-19T05:35:37;6.93;;;5.07;;
8480;SDS011;4277;51.354;6.740;2023-04-19T05:38:03;7.43;;;5.00;;
8480;SDS011;4277;51.354;6.740;2023-04-19T05:40:29;5.83;;;4.77;;
8480;SDS011;4277;51.354;6.740;2023-04-19T05:42:55;7.77;;;5.17;;
8480;SDS011;4277;51.354;6.740;2023-04-19T05:45:21;7.87;;;5.40;;
8480;SDS011;4277;51.354;6.740;2023-04-19T05:47:47;7.97;;;5.47;;
8480;SDS011;4277;51.354;6.740;2023-04-19T05:50:12;7.50;;;5.40;;
8480;SDS011;4277;51.354;6.740;2023-04-19T05:52:42;8.73;;;5.50;;
8480;SDS011;4277;51.354;6.740;2023-04-19T05:55:08;5.83;;;5.27;;
8480;SDS011;4277;51.354;6.740;2023-04-19T05:57:34;6.70;;;5.30;;
8480;SDS011;4277;51.354;6.740;2023-04-19T06:00:00;6.50;;;5.30;;
8480;SDS011;4277;51.354;6.740;2023-04-19T06:02:26;6.00;;;5.20;;
8480;SDS011;4277;51.354;6.740;2023-04-19T06:04:52;5.53;;;5.00;;
8480;SDS011;4277;51.354;6.740;2023-04-19T06:07:18;5.87;;;5.17;;
8480;SDS011;4277;51.354;6.740;2023-04-19T06:09:44;8.67;;;5.37;;
8480;SDS011;4277;51.354;6.740;2023-04-19T06:12:10;6.70;;;5.57;;
8480;SDS011;4277;51.354;6.740;2023-04-19T06:14:36;8.73;;;5.50;;
8480;SDS011;4277;51.354;6.740;2023-04-19T06:17:02;7.73;;;5.30;;
8480;SDS011;4277;51.354;6.740;2023-04-19T06:19:28;8.93;;;5.93;;
8480;SDS011;4277;51.354;6.740;2023-04-19T06:21:57;10.63;;;6.43;;
8480;SDS011;4277;51.354;6.740;2023-04-19T06:24:23;7.97;;;6.03;;
8480;SDS011;4277;51.354;6.740;2023-04-19T06:26:49;8.83;;;6.60;;
8480;SDS011;4277;51.354;6.740;2023-04-19T06:29:14;9.83;;;5.73;;
8480;SDS011;4277;51.354;6.740;2023-04-19T06:31:40;9.03;;;5.70;;
8480;SDS011;4277;51.354;6.740;2023-04-19T06:34:06;8.37;;;5.87;;
8480;SDS011;4277;51.354;6.740;2023-04-19T06:36:32;8.50;;;5.83;;
8480;SDS011;4277;51.354;6.740;2023-04-19T06:38:58;8.73;;;6.10;;
8480;SDS011;4277;51.354;6.740;2023-04-19T06:41:24;9.87;;;5.33;;
8480;SDS011;4277;51.354;6.740;2023-04-19T06:43:50;8.23;;;5.73;;
8480;SDS011;4277;51.354;6.740;2023-04-19T06:46:16;10.17;;;5.63;;
8480;SDS011;4277;51.354;6.740;2023-04-19T06:48:42;8.93;;;5.43;;
8480;SDS011;4277;51.354;6.740;2023-04-19T06:51:08;7.80;;;5.40;;
8480;SDS011;4277;51.354;6.740;2023-04-19T06:53:34;6.67;;;5.63;;
8480;SDS011;4277;51.354;6.740;2023-04-19T06:56:01;6.60;;;5.40;;
8480;SDS011;4277;51.354;6.740;2023-04-19T06:58:28;6.87;;;5.30;;
8480;SDS011;4277;51.354;6.740;2023-04-19T07:00:55;6.87;;;5.33;;
8480;SDS011;4277;51.354;6.740;2023-04-19T07:03:21;8.70;;;4.93;;
8480;SDS011;4277;51.354;6.740;2023-04-19T07:05:47;6.73;;;5.30;;
8480;SDS011;4277;51.354;6.740;2023-04-19T07:08:14;6.17;;;4.77;;
8480;SDS011;4277;51.354;6.740;2023-04-19T07:10:40;7.57;;;4.90;;
8480;SDS011;4277;51.354;6.740;2023-04-19T07:13:07;6.00;;;4.87;;
8480;SDS011;4277;51.354;6.740;2023-04-19T07:15:33;9.13;;;5.07;;
8480;SDS011;4277;51.354;6.740;2023-04-19T07:17:59;7.27;;;4.93;;
8480;SDS011;4277;51.354;6.740;2023-04-19T07:20:25;9.47;;;5.33;;
8480;SDS011;4277;51.354;6.740;2023-04-19T07:22:51;8.10;;;4.70;;
8480;SDS011;4277;51.354;6.740;2023-04-19T07:25:17;7.97;;;4.77;;
8480;SDS011;4277;51.354;6.740;2023-04-19T07:27:43;5.97;;;4.60;;
8480;SDS011;4277;51.354;6.740;2023-04-19T07:30:09;6.90;;;4.83;;
8480;SDS011;4277;51.354;6.740;2023-04-19T07:32:35;9.33;;;4.50;;
8480;SDS011;4277;51.354;6.740;2023-04-19T07:35:01;6.60;;;4.90;;
8480;SDS011;4277;51.354;6.740;2023-04-19T07:37:27;9.60;;;4.73;;
8480;SDS011;4277;51.354;6.740;2023-04-19T07:39:53;8.83;;;4.67;;
8480;SDS011;4277;51.354;6.740;2023-04-19T07:42:19;7.07;;;4.80;;
8480;SDS011;4277;51.354;6.740;2023-04-19T07:44:45;5.07;;;4.13;;
8480;SDS011;4277;51.354;6.740;2023-04-19T07:47:11;6.80;;;5.00;;
8480;SDS011;4277;51.354;6.740;2023-04-19T07:49:37;9.13;;;4.40;;
8480;SDS011;4277;51.354;6.740;2023-04-19T07:52:06;6.07;;;4.27;;
8480;SDS011;4277;51.354;6.740;2023-04-19T07:54:32;5.47;;;4.30;;
8480;SDS011;4277;51.354;6.740;2023-04-19T07:56:58;7.40;;;4.83;;
8480;SDS011;4277;51.354;6.740;2023-04-19T07:59:24;6.73;;;4.93;;
8480;SDS011;4277;51.354;6.740;2023-04-19T08:01:50;7.27;;;4.83;;
8480;SDS011;4277;51.354;6.740;2023-04-19T08:04:16;10.00;;;5.03;;
8480;SDS011;4277;51.354;6.740;2023-04-19T08:06:43;6.43;;;4.60;;
8480;SDS011;4277;51.354;6.740;2023-04-19T08:09:10;8.07;;;4.60;;
8480;SDS011;4277;51.354;6.740;2023-04-19T08:11:36;6.00;;;4.17;;
8480;SDS011;4277;51.354;6.740;2023-04-19T08:14:01;5.30;;;4.20;;
8480;SDS011;4277;51.354;6.740;2023-04-19T08:16:27;6.63;;;4.47;;
8480;SDS011;4277;51.354;6.740;2023-04-19T08:18:54;6.37;;;4.23;;
8480;SDS011;4277;51.354;6.740;2023-04-19T08:21:20;8.80;;;3.93;;
8480;SDS011;4277;51.354;6.740;2023-04-19T08:23:46;8.63;;;4.60;;
8480;SDS011;4277;51.354;6.740;2023-04-19T08:26:12;5.03;;;3.80;;
8480;SDS011;4277;51.354;6.740;2023-04-19T08:28:38;4.63;;;3.90;;
8480;SDS011;4277;51.354;6.740;2023-04-19T08:31:04;5.17;;;3.50;;
8480;SDS011;4277;51.354;6.740;2023-04-19T08:33:34;6.07;;;4.17;;
8480;SDS011;4277;51.354;6.740;2023-04-19T08:36:00;3.93;;;3.43;;
8480;SDS011;4277;51.354;6.740;2023-04-19T08:38:26;6.13;;;4.03;;
8480;SDS011;4277;51.354;6.740;2023-04-19T08:40:52;8.63;;;4.10;;
8480;SDS011;4277;51.354;6.740;2023-04-19T08:43:23;7.43;;;3.80;;
8480;SDS011;4277;51.354;6.740;2023-04-19T08:45:49;4.80;;;3.33;;
8480;SDS011;4277;51.354;6.740;2023-04-19T08:48:16;4.13;;;3.70;;
8480;SDS011;4277;51.354;6.740;2023-04-19T08:50:42;6.03;;;3.47;;
8480;SDS011;4277;51.354;6.740;2023-04-19T08:53:12;8.10;;;3.47;;
8480;SDS011;4277;51.354;6.740;2023-04-19T08:55:39;7.17;;;3.77;;
8480;SDS011;4277;51.354;6.740;2023-04-19T08:58:06;7.50;;;3.60;;
8480;SDS011;4277;51.354;6.740;2023-04-19T09:00:32;6.63;;;3.50;;
8480;SDS011;4277;51.354;6.740;2023-04-19T09:02:58;7.53;;;3.20;;
8480;SDS011;4277;51.354;6.740;2023-04-19T09:05:24;4.40;;;3.23;;
8480;SDS011;4277;51.354;6.740;2023-04-19T09:07:50;5.30;;;3.53;;
8480;SDS011;4277;51.354;6.740;2023-04-19T09:10:17;7.27;;;3.47;;
8480;SDS011;4277;51.354;6.740;2023-04-19T09:12:58;5.83;;;3.00;;
8480;SDS011;4277;51.354;6.740;2023-04-19T09:15:38;3.80;;;3.40;;
8480;SDS011;4277;51.354;6.740;2023-04-19T09:18:05;4.80;;;3.03;;
8480;SDS011;4277;51.354;6.740;2023-04-19T09:20:38;6.80;;;3.23;;
8480;SDS011;4277;51.354;6.740;2023-04-19T09:23:05;4.33;;;3.13;;
8480;SDS011;4277;51.354;6.740;2023-04-19T09:25:31;4.30;;;3.10;;
8480;SDS011;4277;51.354;6.740;2023-04-19T09:28:13;8.07;;;3.40;;
8480;SDS011;4277;51.354;6.740;2023-04-19T09:30:39;4.80;;;3.07;;
8480;SDS011;4277;51.354;6.740;2023-04-19T09:33:06;7.63;;;3.13;;
8480;SDS011;4277;51.354;6.740;2023-04-19T09:35:39;6.43;;;3.07;;
8480;SDS011;4277;51.354;6.740;2023-04-19T09:38:05;5.70;;;2.90;;
8480;SDS011;4277;51.354;6.740;2023-04-19T09:40:31;4.37;;;2.87;;
8480;SDS011;4277;51.354;6.740;2023-04-19T09:42:57;4.53;;;2.80;;
8480;SDS011;4277;51.354;6.740;2023-04-19T09:45:23;3.90;;;3.10;;
8480;SDS011;4277;51.354;6.740;2023-04-19T09:48:05;4.50;;;2.97;;
8480;SDS011;4277;51.354;6.740;2023-04-19T09:50:31;3.27;;;2.57;;
8480;SDS011;4277;51.354;6.740;2023-04-19T09:52:57;7.73;;;2.60;;
8480;SDS011;4277;51.354;6.740;2023-04-19T09:55:24;6.87;;;2.70;;
8480;SDS011;4277;51.354;6.740;2023-04-19T09:57:50;7.77;;;2.50;;
8480;SDS011;4277;51.354;6.740;2023-04-19T10:00:17;4.60;;;2.47;;
8480;SDS011;4277;51.354;6.740;2023-04-19T10:02:45;4.37;;;2.10;;
8480;SDS011;4277;51.354;6.740;2023-04-19T10:05:19;2.50;;;2.00;;
8480;SDS011;4277;51.354;6.740;2023-04-19T10:07:46;2.43;;;2.00;;
8480;SDS011;4277;51.354;6.740;2023-04-19T10:10:13;4.20;;;1.77;;
8480;SDS011;4277;51.354;6.740;2023-04-19T10:12:40;5.63;;;2.10;;
8480;SDS011;4277;51.354;6.740;2023-04-19T10:15:06;2.20;;;1.77;;
8480;SDS011;4277;51.354;6.740;2023-04-19T10:17:34;2.80;;;1.60;;
8480;SDS011;4277;51.354;6.740;2023-04-19T10:20:04;2.27;;;1.70;;
8480;SDS011;4277;51.354;6.740;2023-04-19T10:22:33;2.33;;;1.70;;
8480;SDS011;4277;51.354;6.740;2023-04-19T10:25:08;3.80;;;1.60;;
8480;SDS011;4277;51.354;6.740;2023-04-19T10:27:35;2.13;;;1.60;;
8480;SDS011;4277;51.354;6.740;2023-04-19T10:30:02;6.93;;;1.90;;
8480;SDS011;4277;51.354;6.740;2023-04-19T10:32:41;6.37;;;1.83;;
8480;SDS011;4277;51.354;6.740;2023-04-19T10:35:08;1.43;;;1.33;;
8480;SDS011;4277;51.354;6.740;2023-04-19T10:37:37;2.23;;;1.67;;
8480;SDS011;4277;51.354;6.740;2023-04-19T10:40:04;4.17;;;1.90;;
8480;SDS011;4277;51.354;6.740;2023-04-19T10:45:31;3.37;;;1.63;;
8480;SDS011;4277;51.354;6.740;2023-04-19T10:47:58;2.00;;;1.80;;
8480;SDS011;4277;51.354;6.740;2023-04-19T10:50:24;3.53;;;1.90;;
8480;SDS011;4277;51.354;6.740;2023-04-19T10:52:50;6.17;;;2.27;;
8480;SDS011;4277;51.354;6.740;2023-04-19T10:55:19;7.57;;;2.50;;
8480;SDS011;4277;51.354;6.740;2023-04-19T10:58:04;4.13;;;1.97;;
8480;SDS011;4277;51.354;6.740;2023-04-19T11:00:30;2.93;;;2.40;;
8480;SDS011;4277;51.354;6.740;2023-04-19T11:06:13;6.23;;;2.90;;
8480;SDS011;4277;51.354;6.740;2023-04-19T11:08:32;4.93;;;2.80;;
8480;SDS011;4277;51.354;6.740;2023-04-19T11:10:59;4.03;;;2.90;;
8480;SDS011;4277;51.354;6.740;2023-04-19T11:13:25;3.87;;;2.93;;
8480;SDS011;4277;51.354;6.740;2023-04-19T11:15:51;3.90;;;2.40;;
8480;SDS011;4277;51.354;6.740;2023-04-19T11:18:17;4.23;;;2.70;;
8480;SDS011;4277;51.354;6.740;2023-04-19T11:20:43;5.50;;;2.60;;
8480;SDS011;4277;51.354;6.740;2023-04-19T11:23:15;5.20;;;2.60;;
8480;SDS011;4277;51.354;6.740;2023-04-19T11:25:42;3.93;;;2.70;;
8480;SDS011;4277;51.354;6.740;2023-04-19T11:28:09;4.03;;;2.60;;
8480;SDS011;4277;51.354;6.740;2023-04-19T11:30:35;4.70;;;2.50;;
8480;SDS011;4277;51.354;6.740;2023-04-19T11:33:01;5.03;;;2.80;;
8480;SDS011;4277;51.354;6.740;2023-04-19T11:35:27;3.50;;;3.10;;
8480;SDS011;4277;51.354;6.740;2023-04-19T11:37:57;3.37;;;2.43;;
8480;SDS011;4277;51.354;6.740;2023-04-19T11:40:23;3.20;;;2.40;;
8480;SDS011;4277;51.354;6.740;2023-04-19T11:45:27;3.93;;;2.50;;
8480;SDS011;4277;51.354;6.740;2023-04-19T11:47:54;3.97;;;2.50;;
8480;SDS011;4277;51.354;6.740;2023-04-19T11:50:33;5.40;;;2.47;;
8480;SDS011;4277;51.354;6.740;2023-04-19T11:53:08;3.40;;;2.37;;
8480;SDS011;4277;51.354;6.740;2023-04-19T11:55:34;3.43;;;2.73;;
8480;SDS011;4277;51.354;6.740;2023-04-19T11:58:00;3.20;;;2.63;;
8480;SDS011;4277;51.354;6.740;2023-04-19T12:00:26;4.77;;;2.87;;
8480;SDS011;4277;51.354;6.740;2023-04-19T12:02:53;5.53;;;2.50;;
8480;SDS011;4277;51.354;6.740;2023-04-19T12:05:19;4.13;;;2.80;;
8480;SDS011;4277;51.354;6.740;2023-04-19T12:08:04;8.57;;;3.10;;
8480;SDS011;4277;51.354;6.740;2023-04-19T12:10:32;7.17;;;3.00;;
8480;SDS011;4277;51.354;6.740;2023-04-19T12:12:58;4.00;;;2.70;;
8480;SDS011;4277;51.354;6.740;2023-04-19T12:15:43;7.40;;;2.70;;
8480;SDS011;4277;51.354;6.740;2023-04-19T12:18:09;5.20;;;2.73;;
8480;SDS011;4277;51.354;6.740;2023-04-19T12:20:36;2.83;;;2.50;;
8480;SDS011;4277;51.354;6.740;2023-04-19T12:23:02;4.77;;;3.00;;
8480;SDS011;4277;51.354;6.740;2023-04-19T12:25:32;5.00;;;2.80;;
8480;SDS011;4277;51.354;6.740;2023-04-19T12:28:02;5.63;;;2.73;;
8480;SDS011;4277;51.354;6.740;2023-04-19T12:30:28;4.83;;;2.70;;
8480;SDS011;4277;51.354;6.740;2023-04-19T12:32:54;4.80;;;2.77;;
8480;SDS011;4277;51.354;6.740;2023-04-19T12:35:21;4.43;;;2.90;;
8480;SDS011;4277;51.354;6.740;2023-04-19T12:37:47;6.63;;;2.87;;
8480;SDS011;4277;51.354;6.740;2023-04-19T12:40:13;8.63;;;3.30;;
8480;SDS011;4277;51.354;6.740;2023-04-19T12:42:40;7.70;;;2.70;;
8480;SDS011;4277;51.354;6.740;2023-04-19T12:45:06;5.70;;;3.20;;
8480;SDS011;4277;51.354;6.740;2023-04-19T12:47:32;7.77;;;3.20;;
8480;SDS011;4277;51.354;6.740;2023-04-19T12:49:58;4.33;;;3.00;;
8480;SDS011;4277;51.354;6.740;2023-04-19T12:52:24;3.33;;;2.77;;
8480;SDS011;4277;51.354;6.740;2023-04-19T12:54:50;3.70;;;2.80;;
8480;SDS011;4277;51.354;6.740;2023-04-19T12:57:16;5.50;;;2.83;;
8480;SDS011;4277;51.354;6.740;2023-04-19T12:59:42;4.27;;;2.90;;
8480;SDS011;4277;51.354;6.740;2023-04-19T13:02:08;4.60;;;2.90;;
8480;SDS011;4277;51.354;6.740;2023-04-19T13:04:34;4.03;;;3.27;;
8480;SDS011;4277;51.354;6.740;2023-04-19T13:07:00;5.40;;;2.90;;
8480;SDS011;4277;51.354;6.740;2023-04-19T13:09:27;7.10;;;3.33;;
8480;SDS011;4277;51.354;6.740;2023-04-19T13:11:53;7.23;;;3.30;;
8480;SDS011;4277;51.354;6.740;2023-04-19T13:14:20;6.60;;;3.50;;
8480;SDS011;4277;51.354;6.740;2023-04-19T13:16:46;7.50;;;3.57;;
8480;SDS011;4277;51.354;6.740;2023-04-19T13:19:12;7.90;;;3.50;;
8480;SDS011;4277;51.354;6.740;2023-04-19T13:21:38;13.07;;;3.97;;
8480;SDS011;4277;51.354;6.740;2023-04-19T13:24:04;5.40;;;3.17;;
8480;SDS011;4277;51.354;6.740;2023-04-19T13:26:30;4.77;;;3.50;;
8480;SDS011;4277;51.354;6.740;2023-04-19T13:28:58;5.50;;;3.30;;
8480;SDS011;4277;51.354;6.740;2023-04-19T13:31:24;3.20;;;2.90;;
8480;SDS011;4277;51.354;6.740;2023-04-19T13:33:50;8.13;;;3.23;;
8480;SDS011;4277;51.354;6.740;2023-04-19T13:36:16;5.90;;;3.20;;
8480;SDS011;4277;51.354;6.740;2023-04-19T13:38:42;3.80;;;2.90;;
8480;SDS011;4277;51.354;6.740;2023-04-19T13:41:08;5.20;;;3.30;;
8480;SDS011;4277;51.354;6.740;2023-04-19T13:43:34;5.13;;;3.23;;
8480;SDS011;4277;51.354;6.740;2023-04-19T13:45:59;4.53;;;2.93;;
8480;SDS011;4277;51.354;6.740;2023-04-19T13:48:25;7.55;;;3.30;;
8480;SDS011;4277;51.354;6.740;2023-04-19T13:50:54;4.40;;;2.93;;
8480;SDS011;4277;51.354;6.740;2023-04-19T13:53:21;5.40;;;3.07;;
8480;SDS011;4277;51.354;6.740;2023-04-19T13:55:47;4.67;;;3.13;;
8480;SDS011;4277;51.354;6.740;2023-04-19T13:58:12;5.22;;;3.20;;
8480;SDS011;4277;51.354;6.740;2023-04-19T14:00:38;8.83;;;3.20;;
8480;SDS011;4277;51.354;6.740;2023-04-19T14:03:03;3.22;;;2.88;;
8480;SDS011;4277;51.354;6.740;2023-04-19T14:05:30;5.18;;;2.90;;
8480;SDS011;4277;51.354;6.740;2023-04-19T14:07:55;4.90;;;2.60;;
8480;SDS011;4277;51.354;6.740;2023-04-19T14:10:21;2.88;;;2.63;;
8480;SDS011;4277;51.354;6.740;2023-04-19T14:12:47;4.40;;;2.65;;
8480;SDS011;4277;51.354;6.740;2023-04-19T14:15:13;5.43;;;2.80;;
8480;SDS011;4277;51.354;6.740;2023-04-19T14:17:39;3.30;;;2.70;;
8480;SDS011;4277;51.354;6.740;2023-04-19T14:20:05;5.13;;;2.80;;
8480;SDS011;4277;51.354;6.740;2023-04-19T14:22:31;5.47;;;2.88;;
8480;SDS011;4277;51.354;6.740;2023-04-19T14:24:56;4.82;;;2.75;;
8480;SDS011;4277;51.354;6.740;2023-04-19T14:27:22;6.32;;;2.90;;
8480;SDS011;4277;51.354;6.740;2023-04-19T14:29:48;4.00;;;2.90;;
8480;SDS011;4277;51.354;6.740;2023-04-19T14:32:14;7.40;;;2.80;;
8480;SDS011;4277;51.354;6.740;2023-04-19T14:34:40;4.28;;;2.42;;
8480;SDS011;4277;51.354;6.740;2023-04-19T14:37:05;3.17;;;2.40;;
8480;SDS011;4277;51.354;6.740;2023-04-19T14:39:31;3.15;;;2.70;;
8480;SDS011;4277;51.354;6.740;2023-04-19T14:41:56;2.67;;;2.30;;
8480;SDS011;4277;51.354;6.740;2023-04-19T14:44:22;3.30;;;2.60;;
8480;SDS011;4277;51.354;6.740;2023-04-19T14:46:47;2.90;;;2.60;;
8480;SDS011;4277;51.354;6.740;2023-04-19T14:49:13;4.60;;;2.45;;
8480;SDS011;4277;51.354;6.740;2023-04-19T14:51:39;3.65;;;2.40;;
8480;SDS011;4277;51.354;6.740;2023-04-19T14:54:04;5.03;;;2.47;;
8480;SDS011;4277;51.354;6.740;2023-04-19T14:56:30;11.57;;;2.53;;
8480;SDS011;4277;51.354;6.740;2023-04-19T14:58:55;7.57;;;2.50;;
8480;SDS011;4277;51.354;6.740;2023-04-19T15:01:21;3.83;;;2.58;;
8480;SDS011;4277;51.354;6.740;2023-04-19T15:03:47;5.28;;;2.25;;
8480;SDS011;4277;51.354;6.740;2023-04-19T15:06:13;40.28;;;27.70;;
8480;SDS011;4277;51.354;6.740;2023-04-19T15:08:39;3.17;;;2.70;;
8480;SDS011;4277;51.354;6.740;2023-04-19T15:11:06;3.00;;;2.33;;
8480;SDS011;4277;51.354;6.740;2023-04-19T15:13:33;3.67;;;2.70;;